sensor_id;sensor_type;location;lat;lon;timestamp;temperature;humidity
19168;DHT22;9716;53.114;18.040;2022-11-15T00:01:27;8.80;99.90
19168;DHT22;9716;53.114;18.040;2022-11-15T00:03:55;8.80;99.90
19168;DHT22;9716;53.114;18.040;2022-11-15T00:06:24;8.70;99.90
19168;DHT22;9716;53.114;18.040;2022-11-15T00:08:52;8.80;99.90
19168;DHT22;9716;53.114;18.040;2022-11-15T00:11:21;8.70;99.90
19168;DHT22;9716;53.114;18.040;2022-11-15T00:13:51;8.80;99.90
19168;DHT22;9716;53.114;18.040;2022-11-15T00:16:23;8.70;99.90
19168;DHT22;9716;53.114;18.040;2022-11-15T00:18:52;8.70;99.90
19168;DHT22;9716;53.114;18.040;2022-11-15T00:21:20;8.70;99.90
19168;DHT22;9716;53.114;18.040;2022-11-15T00:23:49;8.70;99.90
19168;DHT22;9716;53.114;18.040;2022-11-15T00:26:18;8.70;99.90
19168;DHT22;9716;53.114;18.040;2022-11-15T00:28:46;8.70;99.90
19168;DHT22;9716;53.114;18.040;2022-11-15T00:31:16;8.70;99.90
19168;DHT22;9716;53.114;18.040;2022-11-15T00:33:45;8.70;99.90
19168;DHT22;9716;53.114;18.040;2022-11-15T00:36:13;8.60;99.90
19168;DHT22;9716;53.114;18.040;2022-11-15T00:38:42;8.60;99.90
19168;DHT22;9716;53.114;18.040;2022-11-15T00:41:11;8.60;99.90
19168;DHT22;9716;53.114;18.040;2022-11-15T00:43:39;8.60;99.90
19168;DHT22;9716;53.114;18.040;2022-11-15T00:46:11;8.50;99.90
19168;DHT22;9716;53.114;18.040;2022-11-15T00:48:41;8.50;99.90
19168;DHT22;9716;53.114;18.040;2022-11-15T00:51:09;8.50;99.90
19168;DHT22;9716;53.114;18.040;2022-11-15T00:53:38;8.60;99.90
19168;DHT22;9716;53.114;18.040;2022-11-15T00:56:06;8.50;99.90
19168;DHT22;9716;53.114;18.040;2022-11-15T00:58:35;8.60;99.90
19168;DHT22;9716;53.114;18.040;2022-11-15T01:01:08;8.60;99.90
19168;DHT22;9716;53.114;18.040;2022-11-15T01:03:38;8.60;99.90
19168;DHT22;9716;53.114;18.040;2022-11-15T01:06:09;8.60;99.90
19168;DHT22;9716;53.114;18.040;2022-11-15T01:08:38;8.60;99.90
19168;DHT22;9716;53.114;18.040;2022-11-15T01:11:09;8.60;99.90
19168;DHT22;9716;53.114;18.040;2022-11-15T01:13:39;8.60;99.90
19168;DHT22;9716;53.114;18.040;2022-11-15T01:16:10;8.60;99.90
19168;DHT22;9716;53.114;18.040;2022-11-15T01:18:39;8.60;99.90
19168;DHT22;9716;53.114;18.040;2022-11-15T01:21:11;8.60;99.90
19168;DHT22;9716;53.114;18.040;2022-11-15T01:23:40;8.60;99.90
19168;DHT22;9716;53.114;18.040;2022-11-15T01:26:12;8.60;99.90
19168;DHT22;9716;53.114;18.040;2022-11-15T01:28:42;8.60;99.90
19168;DHT22;9716;53.114;18.040;2022-11-15T01:31:13;8.50;99.90
19168;DHT22;9716;53.114;18.040;2022-11-15T01:33:42;8.50;99.90
19168;DHT22;9716;53.114;18.040;2022-11-15T01:36:15;8.50;99.90
19168;DHT22;9716;53.114;18.040;2022-11-15T01:38:43;8.50;99.90
19168;DHT22;9716;53.114;18.040;2022-11-15T01:41:17;8.50;99.90
19168;DHT22;9716;53.114;18.040;2022-11-15T01:43:49;8.40;99.90
19168;DHT22;9716;53.114;18.040;2022-11-15T01:46:25;8.40;99.90
19168;DHT22;9716;53.114;18.040;2022-11-15T01:48:56;8.40;99.90
19168;DHT22;9716;53.114;18.040;2022-11-15T01:51:29;8.40;99.90
19168;DHT22;9716;53.114;18.040;2022-11-15T01:54:04;8.30;99.90
19168;DHT22;9716;53.114;18.040;2022-11-15T01:56:38;8.40;99.90
19168;DHT22;9716;53.114;18.040;2022-11-15T01:59:11;8.40;99.90
19168;DHT22;9716;53.114;18.040;2022-11-15T02:01:40;8.40;99.90
19168;DHT22;9716;53.114;18.040;2022-11-15T02:04:12;8.40;99.90
19168;DHT22;9716;53.114;18.040;2022-11-15T02:06:44;8.50;99.90
19168;DHT22;9716;53.114;18.040;2022-11-15T02:09:14;8.40;99.90
19168;DHT22;9716;53.114;18.040;2022-11-15T02:11:44;8.50;99.90
19168;DHT22;9716;53.114;18.040;2022-11-15T02:14:14;8.50;99.90
19168;DHT22;9716;53.114;18.040;2022-11-15T02:16:51;8.50;99.90
19168;DHT22;9716;53.114;18.040;2022-11-15T02:19:40;8.50;99.90
19168;DHT22;9716;53.114;18.040;2022-11-15T02:22:24;8.50;99.90
19168;DHT22;9716;53.114;18.040;2022-11-15T02:25:06;8.50;99.90
19168;DHT22;9716;53.114;18.040;2022-11-15T02:27:59;8.50;99.90
19168;DHT22;9716;53.114;18.040;2022-11-15T02:30:40;8.50;99.90
19168;DHT22;9716;53.114;18.040;2022-11-15T02:33:20;8.50;99.90
19168;DHT22;9716;53.114;18.040;2022-11-15T02:35:56;8.50;99.90
19168;DHT22;9716;53.114;18.040;2022-11-15T02:38:31;8.50;99.90
19168;DHT22;9716;53.114;18.040;2022-11-15T02:41:03;8.50;99.90
19168;DHT22;9716;53.114;18.040;2022-11-15T02:43:37;8.50;99.90
19168;DHT22;9716;53.114;18.040;2022-11-15T02:46:31;8.50;99.90
19168;DHT22;9716;53.114;18.040;2022-11-15T02:49:15;8.40;99.90
19168;DHT22;9716;53.114;18.040;2022-11-15T02:51:46;8.40;99.90
19168;DHT22;9716;53.114;18.040;2022-11-15T02:54:20;8.40;99.90
19168;DHT22;9716;53.114;18.040;2022-11-15T02:56:51;8.40;99.90
19168;DHT22;9716;53.114;18.040;2022-11-15T02:59:41;8.40;99.90
19168;DHT22;9716;53.114;18.040;2022-11-15T03:02:21;8.40;99.90
19168;DHT22;9716;53.114;18.040;2022-11-15T03:04:55;8.40;99.90
19168;DHT22;9716;53.114;18.040;2022-11-15T03:07:28;8.40;99.90
19168;DHT22;9716;53.114;18.040;2022-11-15T03:10:05;8.40;99.90
19168;DHT22;9716;53.114;18.040;2022-11-15T03:12:38;8.40;99.90
19168;DHT22;9716;53.114;18.040;2022-11-15T03:15:13;8.40;99.90
19168;DHT22;9716;53.114;18.040;2022-11-15T03:17:51;8.40;99.90
19168;DHT22;9716;53.114;18.040;2022-11-15T03:20:21;8.30;99.90
19168;DHT22;9716;53.114;18.040;2022-11-15T03:22:50;8.30;99.90
19168;DHT22;9716;53.114;18.040;2022-11-15T03:25:23;8.30;99.90
19168;DHT22;9716;53.114;18.040;2022-11-15T03:27:55;8.30;99.90
19168;DHT22;9716;53.114;18.040;2022-11-15T03:30:26;8.30;99.90
19168;DHT22;9716;53.114;18.040;2022-11-15T03:32:58;8.30;99.90
19168;DHT22;9716;53.114;18.040;2022-11-15T03:35:30;8.30;99.90
19168;DHT22;9716;53.114;18.040;2022-11-15T03:38:05;8.30;99.90
19168;DHT22;9716;53.114;18.040;2022-11-15T03:40:38;8.30;99.90
19168;DHT22;9716;53.114;18.040;2022-11-15T03:43:13;8.30;99.90
19168;DHT22;9716;53.114;18.040;2022-11-15T03:45:46;8.30;99.90
19168;DHT22;9716;53.114;18.040;2022-11-15T03:48:21;8.30;99.90
19168;DHT22;9716;53.114;18.040;2022-11-15T03:50:51;8.30;99.90
19168;DHT22;9716;53.114;18.040;2022-11-15T03:53:20;8.30;99.90
19168;DHT22;9716;53.114;18.040;2022-11-15T03:55:49;8.30;99.90
19168;DHT22;9716;53.114;18.040;2022-11-15T03:58:17;8.20;99.90
19168;DHT22;9716;53.114;18.040;2022-11-15T04:00:46;8.30;99.90
19168;DHT22;9716;53.114;18.040;2022-11-15T04:03:16;8.30;99.90
19168;DHT22;9716;53.114;18.040;2022-11-15T04:05:45;8.20;99.90
19168;DHT22;9716;53.114;18.040;2022-11-15T04:08:14;8.20;99.90
19168;DHT22;9716;53.114;18.040;2022-11-15T04:10:43;8.20;99.90
19168;DHT22;9716;53.114;18.040;2022-11-15T04:13:11;8.20;99.90
19168;DHT22;9716;53.114;18.040;2022-11-15T04:15:40;8.20;99.90
19168;DHT22;9716;53.114;18.040;2022-11-15T04:18:08;8.20;99.90
19168;DHT22;9716;53.114;18.040;2022-11-15T04:20:39;8.20;99.90
19168;DHT22;9716;53.114;18.040;2022-11-15T04:23:25;8.20;99.90
19168;DHT22;9716;53.114;18.040;2022-11-15T04:26:14;8.20;99.90
19168;DHT22;9716;53.114;18.040;2022-11-15T04:28:43;8.20;99.90
19168;DHT22;9716;53.114;18.040;2022-11-15T04:31:27;8.20;99.90
19168;DHT22;9716;53.114;18.040;2022-11-15T04:33:56;8.20;99.90
19168;DHT22;9716;53.114;18.040;2022-11-15T04:36:27;8.20;99.90
19168;DHT22;9716;53.114;18.040;2022-11-15T04:39:12;8.20;99.90
19168;DHT22;9716;53.114;18.040;2022-11-15T04:41:41;8.20;99.90
19168;DHT22;9716;53.114;18.040;2022-11-15T04:44:09;8.20;99.90
19168;DHT22;9716;53.114;18.040;2022-11-15T04:46:38;8.20;99.90
19168;DHT22;9716;53.114;18.040;2022-11-15T04:49:07;8.20;99.90
19168;DHT22;9716;53.114;18.040;2022-11-15T04:51:37;8.20;99.90
19168;DHT22;9716;53.114;18.040;2022-11-15T04:54:06;8.20;99.90
19168;DHT22;9716;53.114;18.040;2022-11-15T04:56:35;8.20;99.90
19168;DHT22;9716;53.114;18.040;2022-11-15T04:59:04;8.30;99.90
19168;DHT22;9716;53.114;18.040;2022-11-15T05:01:33;8.20;99.90
19168;DHT22;9716;53.114;18.040;2022-11-15T05:04:07;8.30;99.90
19168;DHT22;9716;53.114;18.040;2022-11-15T05:06:51;8.30;99.90
19168;DHT22;9716;53.114;18.040;2022-11-15T05:09:20;8.20;99.90
19168;DHT22;9716;53.114;18.040;2022-11-15T05:11:49;8.30;99.90
19168;DHT22;9716;53.114;18.040;2022-11-15T05:14:17;8.20;99.90
19168;DHT22;9716;53.114;18.040;2022-11-15T05:16:46;8.20;99.90
19168;DHT22;9716;53.114;18.040;2022-11-15T05:19:15;8.20;99.90
19168;DHT22;9716;53.114;18.040;2022-11-15T05:21:44;8.20;99.90
19168;DHT22;9716;53.114;18.040;2022-11-15T05:24:14;8.30;99.90
19168;DHT22;9716;53.114;18.040;2022-11-15T05:26:43;8.30;99.90
19168;DHT22;9716;53.114;18.040;2022-11-15T05:29:11;8.50;99.90
19168;DHT22;9716;53.114;18.040;2022-11-15T05:31:41;8.20;99.90
19168;DHT22;9716;53.114;18.040;2022-11-15T05:34:10;8.20;99.90
19168;DHT22;9716;53.114;18.040;2022-11-15T05:36:41;8.20;99.90
19168;DHT22;9716;53.114;18.040;2022-11-15T05:39:11;8.30;99.90
19168;DHT22;9716;53.114;18.040;2022-11-15T05:41:44;8.20;99.90
19168;DHT22;9716;53.114;18.040;2022-11-15T05:44:16;8.20;99.90
19168;DHT22;9716;53.114;18.040;2022-11-15T05:46:46;8.20;99.90
19168;DHT22;9716;53.114;18.040;2022-11-15T05:49:17;8.20;99.90
19168;DHT22;9716;53.114;18.040;2022-11-15T05:51:48;8.30;99.90
19168;DHT22;9716;53.114;18.040;2022-11-15T05:54:17;8.30;99.90
19168;DHT22;9716;53.114;18.040;2022-11-15T05:56:49;8.30;99.90
19168;DHT22;9716;53.114;18.040;2022-11-15T05:59:18;8.30;99.90
19168;DHT22;9716;53.114;18.040;2022-11-15T06:01:48;8.30;99.90
19168;DHT22;9716;53.114;18.040;2022-11-15T06:04:17;8.30;99.90
19168;DHT22;9716;53.114;18.040;2022-11-15T06:06:45;8.30;99.90
19168;DHT22;9716;53.114;18.040;2022-11-15T06:09:13;8.20;99.90
19168;DHT22;9716;53.114;18.040;2022-11-15T06:11:42;8.50;99.90
19168;DHT22;9716;53.114;18.040;2022-11-15T06:14:12;8.30;99.90
19168;DHT22;9716;53.114;18.040;2022-11-15T06:16:41;8.20;99.90
19168;DHT22;9716;53.114;18.040;2022-11-15T06:19:09;8.30;99.90
19168;DHT22;9716;53.114;18.040;2022-11-15T06:21:38;8.30;99.90
19168;DHT22;9716;53.114;18.040;2022-11-15T06:24:07;8.30;99.90
19168;DHT22;9716;53.114;18.040;2022-11-15T06:26:36;8.30;99.90
19168;DHT22;9716;53.114;18.040;2022-11-15T06:29:05;8.30;99.90
19168;DHT22;9716;53.114;18.040;2022-11-15T06:31:36;8.30;99.90
19168;DHT22;9716;53.114;18.040;2022-11-15T06:34:04;8.30;99.90
19168;DHT22;9716;53.114;18.040;2022-11-15T06:36:34;8.30;99.90
19168;DHT22;9716;53.114;18.040;2022-11-15T06:39:03;8.30;99.90
19168;DHT22;9716;53.114;18.040;2022-11-15T06:41:34;8.30;99.90
19168;DHT22;9716;53.114;18.040;2022-11-15T06:44:03;8.40;99.90
19168;DHT22;9716;53.114;18.040;2022-11-15T06:46:31;8.40;99.90
19168;DHT22;9716;53.114;18.040;2022-11-15T06:49:01;8.40;99.90
19168;DHT22;9716;53.114;18.040;2022-11-15T06:51:36;8.40;99.90
19168;DHT22;9716;53.114;18.040;2022-11-15T06:54:04;8.40;99.90
19168;DHT22;9716;53.114;18.040;2022-11-15T06:56:33;8.40;99.90
19168;DHT22;9716;53.114;18.040;2022-11-15T06:59:02;8.40;99.90
19168;DHT22;9716;53.114;18.040;2022-11-15T07:01:31;8.50;99.90
19168;DHT22;9716;53.114;18.040;2022-11-15T07:04:02;8.50;99.90
19168;DHT22;9716;53.114;18.040;2022-11-15T07:06:30;8.50;99.90
19168;DHT22;9716;53.114;18.040;2022-11-15T07:08:59;8.50;99.90
19168;DHT22;9716;53.114;18.040;2022-11-15T07:11:28;8.50;99.90
19168;DHT22;9716;53.114;18.040;2022-11-15T07:13:56;8.50;99.90
19168;DHT22;9716;53.114;18.040;2022-11-15T07:16:27;8.50;99.90
19168;DHT22;9716;53.114;18.040;2022-11-15T07:18:55;8.50;99.90
19168;DHT22;9716;53.114;18.040;2022-11-15T07:21:26;8.50;99.90
19168;DHT22;9716;53.114;18.040;2022-11-15T07:23:55;8.50;99.90
19168;DHT22;9716;53.114;18.040;2022-11-15T07:26:23;8.50;99.90
19168;DHT22;9716;53.114;18.040;2022-11-15T07:28:52;8.50;99.90
19168;DHT22;9716;53.114;18.040;2022-11-15T07:31:21;8.50;99.90
19168;DHT22;9716;53.114;18.040;2022-11-15T07:33:50;8.50;99.90
19168;DHT22;9716;53.114;18.040;2022-11-15T07:36:19;8.50;99.90
19168;DHT22;9716;53.114;18.040;2022-11-15T07:38:48;8.50;99.90
19168;DHT22;9716;53.114;18.040;2022-11-15T07:41:17;8.50;99.90
19168;DHT22;9716;53.114;18.040;2022-11-15T07:43:45;8.50;99.90
19168;DHT22;9716;53.114;18.040;2022-11-15T07:46:14;8.60;99.90
19168;DHT22;9716;53.114;18.040;2022-11-15T07:48:42;8.60;99.90
19168;DHT22;9716;53.114;18.040;2022-11-15T07:51:12;8.60;99.90
19168;DHT22;9716;53.114;18.040;2022-11-15T07:53:42;8.60;99.90
19168;DHT22;9716;53.114;18.040;2022-11-15T07:56:12;8.60;99.90
19168;DHT22;9716;53.114;18.040;2022-11-15T07:58:40;8.70;99.90
19168;DHT22;9716;53.114;18.040;2022-11-15T08:01:10;8.70;99.90
19168;DHT22;9716;53.114;18.040;2022-11-15T08:03:39;8.70;99.90
19168;DHT22;9716;53.114;18.040;2022-11-15T08:06:08;8.70;99.90
19168;DHT22;9716;53.114;18.040;2022-11-15T08:08:37;8.70;99.90
19168;DHT22;9716;53.114;18.040;2022-11-15T08:11:05;8.70;99.90
19168;DHT22;9716;53.114;18.040;2022-11-15T08:13:35;8.80;99.90
19168;DHT22;9716;53.114;18.040;2022-11-15T08:16:04;8.80;99.90
19168;DHT22;9716;53.114;18.040;2022-11-15T08:18:33;8.80;99.90
19168;DHT22;9716;53.114;18.040;2022-11-15T08:21:02;8.80;99.90
19168;DHT22;9716;53.114;18.040;2022-11-15T08:23:30;8.90;99.90
19168;DHT22;9716;53.114;18.040;2022-11-15T08:26:01;8.90;99.90
19168;DHT22;9716;53.114;18.040;2022-11-15T08:28:30;8.90;99.90
19168;DHT22;9716;53.114;18.040;2022-11-15T08:31:02;8.90;99.90
19168;DHT22;9716;53.114;18.040;2022-11-15T08:33:31;8.90;99.90
19168;DHT22;9716;53.114;18.040;2022-11-15T08:36:01;8.90;99.90
19168;DHT22;9716;53.114;18.040;2022-11-15T08:38:29;9.00;99.90
19168;DHT22;9716;53.114;18.040;2022-11-15T08:41:03;9.00;99.90
19168;DHT22;9716;53.114;18.040;2022-11-15T08:43:33;9.00;99.90
19168;DHT22;9716;53.114;18.040;2022-11-15T08:46:03;9.00;99.90
19168;DHT22;9716;53.114;18.040;2022-11-15T08:48:32;9.00;99.90
19168;DHT22;9716;53.114;18.040;2022-11-15T08:51:01;9.10;99.90
19168;DHT22;9716;53.114;18.040;2022-11-15T08:53:29;9.10;99.90
19168;DHT22;9716;53.114;18.040;2022-11-15T08:55:58;9.10;99.90
19168;DHT22;9716;53.114;18.040;2022-11-15T08:58:26;9.10;99.90
19168;DHT22;9716;53.114;18.040;2022-11-15T09:00:55;9.20;99.90
19168;DHT22;9716;53.114;18.040;2022-11-15T09:03:25;9.20;99.90
19168;DHT22;9716;53.114;18.040;2022-11-15T09:05:55;9.20;99.90
19168;DHT22;9716;53.114;18.040;2022-11-15T09:08:24;9.20;99.90
19168;DHT22;9716;53.114;18.040;2022-11-15T09:11:13;9.20;99.90
19168;DHT22;9716;53.114;18.040;2022-11-15T09:13:43;9.20;99.90
19168;DHT22;9716;53.114;18.040;2022-11-15T09:16:12;9.20;99.90
19168;DHT22;9716;53.114;18.040;2022-11-15T09:18:44;9.20;99.90
19168;DHT22;9716;53.114;18.040;2022-11-15T09:21:13;9.20;99.90
19168;DHT22;9716;53.114;18.040;2022-11-15T09:23:41;9.20;99.90
19168;DHT22;9716;53.114;18.040;2022-11-15T09:26:10;9.10;99.90
19168;DHT22;9716;53.114;18.040;2022-11-15T09:28:38;9.10;99.90
19168;DHT22;9716;53.114;18.040;2022-11-15T09:31:09;9.00;99.90
19168;DHT22;9716;53.114;18.040;2022-11-15T09:33:37;9.00;99.90
19168;DHT22;9716;53.114;18.040;2022-11-15T09:36:08;8.90;99.90
19168;DHT22;9716;53.114;18.040;2022-11-15T09:38:37;8.90;99.90
19168;DHT22;9716;53.114;18.040;2022-11-15T09:41:19;8.90;99.90
19168;DHT22;9716;53.114;18.040;2022-11-15T09:43:58;8.90;99.90
19168;DHT22;9716;53.114;18.040;2022-11-15T09:46:36;9.10;99.90
19168;DHT22;9716;53.114;18.040;2022-11-15T09:49:08;9.10;99.90
19168;DHT22;9716;53.114;18.040;2022-11-15T09:51:41;9.20;99.90
19168;DHT22;9716;53.114;18.040;2022-11-15T09:54:26;9.20;99.90
19168;DHT22;9716;53.114;18.040;2022-11-15T09:57:17;9.30;99.90
19168;DHT22;9716;53.114;18.040;2022-11-15T10:00:13;9.20;99.90
19168;DHT22;9716;53.114;18.040;2022-11-15T10:03:11;9.20;99.90
19168;DHT22;9716;53.114;18.040;2022-11-15T10:05:42;9.20;99.90
19168;DHT22;9716;53.114;18.040;2022-11-15T10:08:24;9.20;99.90
19168;DHT22;9716;53.114;18.040;2022-11-15T10:10:56;9.20;99.90
19168;DHT22;9716;53.114;18.040;2022-11-15T10:13:47;9.30;99.90
19168;DHT22;9716;53.114;18.040;2022-11-15T10:19:38;9.30;99.90
19168;DHT22;9716;53.114;18.040;2022-11-15T10:22:20;9.40;99.90
19168;DHT22;9716;53.114;18.040;2022-11-15T10:25:14;9.50;99.90
19168;DHT22;9716;53.114;18.040;2022-11-15T10:27:47;9.50;99.90
19168;DHT22;9716;53.114;18.040;2022-11-15T10:30:19;9.60;99.90
19168;DHT22;9716;53.114;18.040;2022-11-15T10:32:48;9.60;99.90
19168;DHT22;9716;53.114;18.040;2022-11-15T10:35:24;9.70;99.90
19168;DHT22;9716;53.114;18.040;2022-11-15T10:38:04;9.70;99.90
19168;DHT22;9716;53.114;18.040;2022-11-15T10:40:35;9.80;99.90
19168;DHT22;9716;53.114;18.040;2022-11-15T10:43:12;9.70;99.90
19168;DHT22;9716;53.114;18.040;2022-11-15T10:45:41;9.80;99.90
19168;DHT22;9716;53.114;18.040;2022-11-15T10:48:25;9.80;99.90
19168;DHT22;9716;53.114;18.040;2022-11-15T10:50:55;9.80;99.90
19168;DHT22;9716;53.114;18.040;2022-11-15T10:53:29;9.80;99.90
19168;DHT22;9716;53.114;18.040;2022-11-15T10:56:05;9.70;99.90
19168;DHT22;9716;53.114;18.040;2022-11-15T10:58:38;9.70;99.90
19168;DHT22;9716;53.114;18.040;2022-11-15T11:01:14;9.60;99.90
19168;DHT22;9716;53.114;18.040;2022-11-15T11:03:44;9.60;99.90
19168;DHT22;9716;53.114;18.040;2022-11-15T11:06:15;9.60;99.90
19168;DHT22;9716;53.114;18.040;2022-11-15T11:08:55;9.40;99.90
19168;DHT22;9716;53.114;18.040;2022-11-15T11:11:43;9.40;99.90
19168;DHT22;9716;53.114;18.040;2022-11-15T11:14:19;9.40;99.90
19168;DHT22;9716;53.114;18.040;2022-11-15T11:16:51;9.40;99.90
19168;DHT22;9716;53.114;18.040;2022-11-15T11:19:46;9.50;99.90
19168;DHT22;9716;53.114;18.040;2022-11-15T11:22:24;9.50;99.90
19168;DHT22;9716;53.114;18.040;2022-11-15T11:25:04;9.50;99.90
19168;DHT22;9716;53.114;18.040;2022-11-15T11:27:43;9.60;99.90
19168;DHT22;9716;53.114;18.040;2022-11-15T11:30:18;9.70;99.90
19168;DHT22;9716;53.114;18.040;2022-11-15T11:32:55;9.70;99.90
19168;DHT22;9716;53.114;18.040;2022-11-15T11:35:30;9.60;99.90
19168;DHT22;9716;53.114;18.040;2022-11-15T11:38:15;9.70;99.90
19168;DHT22;9716;53.114;18.040;2022-11-15T11:40:57;9.60;99.90
19168;DHT22;9716;53.114;18.040;2022-11-15T11:43:36;9.60;99.90
19168;DHT22;9716;53.114;18.040;2022-11-15T11:46:19;9.60;99.90
19168;DHT22;9716;53.114;18.040;2022-11-15T11:48:55;9.60;99.90
19168;DHT22;9716;53.114;18.040;2022-11-15T11:51:28;9.60;99.90
19168;DHT22;9716;53.114;18.040;2022-11-15T11:54:06;9.70;99.90
19168;DHT22;9716;53.114;18.040;2022-11-15T11:56:41;9.70;99.90
19168;DHT22;9716;53.114;18.040;2022-11-15T11:59:17;9.70;99.90
19168;DHT22;9716;53.114;18.040;2022-11-15T12:01:47;9.70;99.90
19168;DHT22;9716;53.114;18.040;2022-11-15T12:04:19;9.70;99.90
19168;DHT22;9716;53.114;18.040;2022-11-15T12:06:51;9.70;99.90
19168;DHT22;9716;53.114;18.040;2022-11-15T12:09:26;9.60;99.90
19168;DHT22;9716;53.114;18.040;2022-11-15T12:12:04;9.50;99.90
19168;DHT22;9716;53.114;18.040;2022-11-15T12:14:40;9.50;99.90
19168;DHT22;9716;53.114;18.040;2022-11-15T12:17:12;9.40;99.90
19168;DHT22;9716;53.114;18.040;2022-11-15T12:19:42;9.40;99.90
19168;DHT22;9716;53.114;18.040;2022-11-15T12:22:16;9.40;99.90
19168;DHT22;9716;53.114;18.040;2022-11-15T12:24:51;9.30;99.90
19168;DHT22;9716;53.114;18.040;2022-11-15T12:27:30;9.40;99.90
19168;DHT22;9716;53.114;18.040;2022-11-15T12:30:04;9.40;99.90
19168;DHT22;9716;53.114;18.040;2022-11-15T12:32:38;9.50;99.90
19168;DHT22;9716;53.114;18.040;2022-11-15T12:35:24;9.50;99.90
19168;DHT22;9716;53.114;18.040;2022-11-15T12:37:54;9.50;99.90
19168;DHT22;9716;53.114;18.040;2022-11-15T12:40:25;9.60;99.90
19168;DHT22;9716;53.114;18.040;2022-11-15T12:43:01;9.60;99.90
19168;DHT22;9716;53.114;18.040;2022-11-15T12:45:34;9.60;99.90
19168;DHT22;9716;53.114;18.040;2022-11-15T12:48:45;9.60;99.90
19168;DHT22;9716;53.114;18.040;2022-11-15T12:51:16;9.60;99.90
19168;DHT22;9716;53.114;18.040;2022-11-15T12:53:45;9.50;99.90
19168;DHT22;9716;53.114;18.040;2022-11-15T12:56:23;9.50;99.90
19168;DHT22;9716;53.114;18.040;2022-11-15T12:58:54;9.50;99.90
19168;DHT22;9716;53.114;18.040;2022-11-15T13:01:59;9.50;99.90
19168;DHT22;9716;53.114;18.040;2022-11-15T13:04:30;9.50;99.90
19168;DHT22;9716;53.114;18.040;2022-11-15T13:07:01;9.50;99.90
19168;DHT22;9716;53.114;18.040;2022-11-15T13:12:55;9.50;99.90
19168;DHT22;9716;53.114;18.040;2022-11-15T13:15:35;9.50;99.90
19168;DHT22;9716;53.114;18.040;2022-11-15T13:18:34;9.50;99.90
19168;DHT22;9716;53.114;18.040;2022-11-15T13:21:04;9.50;99.90
19168;DHT22;9716;53.114;18.040;2022-11-15T13:23:55;9.50;99.90
19168;DHT22;9716;53.114;18.040;2022-11-15T13:26:23;9.50;99.90
19168;DHT22;9716;53.114;18.040;2022-11-15T13:28:52;9.40;99.90
19168;DHT22;9716;53.114;18.040;2022-11-15T13:31:29;9.40;99.90
19168;DHT22;9716;53.114;18.040;2022-11-15T13:34:03;9.30;99.90
19168;DHT22;9716;53.114;18.040;2022-11-15T13:36:52;9.30;99.90
19168;DHT22;9716;53.114;18.040;2022-11-15T13:39:27;9.20;99.90
19168;DHT22;9716;53.114;18.040;2022-11-15T13:41:56;9.10;99.90
19168;DHT22;9716;53.114;18.040;2022-11-15T13:44:26;9.10;99.90
19168;DHT22;9716;53.114;18.040;2022-11-15T13:47:04;9.00;99.90
19168;DHT22;9716;53.114;18.040;2022-11-15T13:49:34;9.00;99.90
19168;DHT22;9716;53.114;18.040;2022-11-15T13:52:06;8.90;99.90
19168;DHT22;9716;53.114;18.040;2022-11-15T13:54:40;8.80;99.90
19168;DHT22;9716;53.114;18.040;2022-11-15T13:57:14;8.90;99.90
19168;DHT22;9716;53.114;18.040;2022-11-15T13:59:46;8.80;99.90
19168;DHT22;9716;53.114;18.040;2022-11-15T14:02:17;8.80;99.90
19168;DHT22;9716;53.114;18.040;2022-11-15T14:04:50;8.80;99.90
19168;DHT22;9716;53.114;18.040;2022-11-15T14:07:20;8.70;99.90
19168;DHT22;9716;53.114;18.040;2022-11-15T14:09:50;8.60;99.90
19168;DHT22;9716;53.114;18.040;2022-11-15T14:12:28;8.70;99.90
19168;DHT22;9716;53.114;18.040;2022-11-15T14:14:58;8.60;99.90
19168;DHT22;9716;53.114;18.040;2022-11-15T14:17:35;8.70;99.90
19168;DHT22;9716;53.114;18.040;2022-11-15T14:22:59;8.70;99.90
19168;DHT22;9716;53.114;18.040;2022-11-15T14:25:29;8.70;99.90
19168;DHT22;9716;53.114;18.040;2022-11-15T14:28:16;8.70;99.90
19168;DHT22;9716;53.114;18.040;2022-11-15T14:30:58;8.70;99.90
19168;DHT22;9716;53.114;18.040;2022-11-15T14:33:28;8.70;99.90
19168;DHT22;9716;53.114;18.040;2022-11-15T14:36:02;8.70;99.90
19168;DHT22;9716;53.114;18.040;2022-11-15T14:38:32;8.70;99.90
19168;DHT22;9716;53.114;18.040;2022-11-15T14:41:02;8.60;99.90
19168;DHT22;9716;53.114;18.040;2022-11-15T14:43:32;8.60;99.90
19168;DHT22;9716;53.114;18.040;2022-11-15T14:46:00;8.60;99.90
19168;DHT22;9716;53.114;18.040;2022-11-15T14:48:29;8.60;99.90
19168;DHT22;9716;53.114;18.040;2022-11-15T14:50:58;8.50;99.90
19168;DHT22;9716;53.114;18.040;2022-11-15T14:53:26;8.60;99.90
19168;DHT22;9716;53.114;18.040;2022-11-15T14:55:56;8.50;99.90
19168;DHT22;9716;53.114;18.040;2022-11-15T14:58:25;8.50;99.90
19168;DHT22;9716;53.114;18.040;2022-11-15T15:00:54;8.50;99.90
19168;DHT22;9716;53.114;18.040;2022-11-15T15:03:22;8.50;99.90
19168;DHT22;9716;53.114;18.040;2022-11-15T15:05:51;8.50;99.90
19168;DHT22;9716;53.114;18.040;2022-11-15T15:08:19;8.40;99.90
19168;DHT22;9716;53.114;18.040;2022-11-15T15:10:48;8.40;99.90
19168;DHT22;9716;53.114;18.040;2022-11-15T15:13:19;8.30;99.90
19168;DHT22;9716;53.114;18.040;2022-11-15T15:15:49;8.30;99.90
19168;DHT22;9716;53.114;18.040;2022-11-15T15:18:18;8.20;99.90
19168;DHT22;9716;53.114;18.040;2022-11-15T15:20:54;8.20;99.90
19168;DHT22;9716;53.114;18.040;2022-11-15T15:23:23;8.20;99.90
19168;DHT22;9716;53.114;18.040;2022-11-15T15:25:54;8.20;99.90
19168;DHT22;9716;53.114;18.040;2022-11-15T15:28:23;8.20;99.90
19168;DHT22;9716;53.114;18.040;2022-11-15T15:31:00;8.20;99.90
19168;DHT22;9716;53.114;18.040;2022-11-15T15:33:28;8.20;99.90
19168;DHT22;9716;53.114;18.040;2022-11-15T15:35:57;8.10;99.90
19168;DHT22;9716;53.114;18.040;2022-11-15T15:38:26;8.10;99.90
19168;DHT22;9716;53.114;18.040;2022-11-15T15:40:55;8.10;99.90
19168;DHT22;9716;53.114;18.040;2022-11-15T15:43:25;8.10;99.90
19168;DHT22;9716;53.114;18.040;2022-11-15T15:45:54;8.20;99.90
19168;DHT22;9716;53.114;18.040;2022-11-15T15:48:23;8.10;99.90
19168;DHT22;9716;53.114;18.040;2022-11-15T15:50:51;8.10;99.90
19168;DHT22;9716;53.114;18.040;2022-11-15T15:53:20;8.10;99.90
19168;DHT22;9716;53.114;18.040;2022-11-15T15:55:48;8.10;99.90
19168;DHT22;9716;53.114;18.040;2022-11-15T15:58:17;8.00;99.90
19168;DHT22;9716;53.114;18.040;2022-11-15T16:00:46;8.00;99.90
19168;DHT22;9716;53.114;18.040;2022-11-15T16:03:15;8.00;99.90
19168;DHT22;9716;53.114;18.040;2022-11-15T16:05:44;8.00;99.90
19168;DHT22;9716;53.114;18.040;2022-11-15T16:08:18;8.00;99.90
19168;DHT22;9716;53.114;18.040;2022-11-15T16:10:47;8.00;99.90
19168;DHT22;9716;53.114;18.040;2022-11-15T16:13:15;8.00;99.90
19168;DHT22;9716;53.114;18.040;2022-11-15T16:15:46;8.10;99.90
19168;DHT22;9716;53.114;18.040;2022-11-15T16:18:17;8.00;99.90
19168;DHT22;9716;53.114;18.040;2022-11-15T16:20:47;8.00;99.90
19168;DHT22;9716;53.114;18.040;2022-11-15T16:23:18;8.00;99.90
19168;DHT22;9716;53.114;18.040;2022-11-15T16:25:48;7.90;99.90
19168;DHT22;9716;53.114;18.040;2022-11-15T16:28:19;8.00;99.90